sensor_id;sensor_type;location;lat;lon;timestamp;temperature;humidity
58513;DHT22;44302;47.914;10.642;2022-07-06T00:00:33;16.20;99.90
58513;DHT22;44302;47.914;10.642;2022-07-06T00:02:59;16.20;99.90
58513;DHT22;44302;47.914;10.642;2022-07-06T00:05:25;16.20;99.90
58513;DHT22;44302;47.914;10.642;2022-07-06T00:07:51;16.20;99.90
58513;DHT22;44302;47.914;10.642;2022-07-06T00:10:16;16.20;99.90
58513;DHT22;44302;47.914;10.642;2022-07-06T00:12:42;16.20;99.90
58513;DHT22;44302;47.914;10.642;2022-07-06T00:15:10;16.20;99.90
58513;DHT22;44302;47.914;10.642;2022-07-06T00:17:36;16.10;99.90
58513;DHT22;44302;47.914;10.642;2022-07-06T00:20:01;16.10;99.90
58513;DHT22;44302;47.914;10.642;2022-07-06T00:22:27;16.00;99.90
58513;DHT22;44302;47.914;10.642;2022-07-06T00:24:53;16.00;99.90
58513;DHT22;44302;47.914;10.642;2022-07-06T00:27:18;16.00;99.90
58513;DHT22;44302;47.914;10.642;2022-07-06T00:29:45;16.00;99.90
58513;DHT22;44302;47.914;10.642;2022-07-06T00:32:11;16.00;99.90
58513;DHT22;44302;47.914;10.642;2022-07-06T00:34:37;16.00;99.90
58513;DHT22;44302;47.914;10.642;2022-07-06T00:37:05;16.10;99.90
58513;DHT22;44302;47.914;10.642;2022-07-06T00:39:32;16.10;99.90
58513;DHT22;44302;47.914;10.642;2022-07-06T00:41:57;16.10;99.90
58513;DHT22;44302;47.914;10.642;2022-07-06T00:44:23;16.10;99.90
58513;DHT22;44302;47.914;10.642;2022-07-06T00:46:49;16.10;99.90
58513;DHT22;44302;47.914;10.642;2022-07-06T00:49:15;16.20;99.90
58513;DHT22;44302;47.914;10.642;2022-07-06T00:52:00;16.20;99.90
58513;DHT22;44302;47.914;10.642;2022-07-06T00:54:27;16.20;99.90
58513;DHT22;44302;47.914;10.642;2022-07-06T00:56:55;16.20;99.90
58513;DHT22;44302;47.914;10.642;2022-07-06T00:59:21;16.20;99.90
58513;DHT22;44302;47.914;10.642;2022-07-06T01:01:47;16.20;99.90
58513;DHT22;44302;47.914;10.642;2022-07-06T01:04:13;16.10;99.90
58513;DHT22;44302;47.914;10.642;2022-07-06T01:06:39;16.10;99.90
58513;DHT22;44302;47.914;10.642;2022-07-06T01:09:05;16.00;99.90
58513;DHT22;44302;47.914;10.642;2022-07-06T01:11:31;16.00;99.90
58513;DHT22;44302;47.914;10.642;2022-07-06T01:13:56;16.00;99.90
58513;DHT22;44302;47.914;10.642;2022-07-06T01:16:23;16.00;99.90
58513;DHT22;44302;47.914;10.642;2022-07-06T01:18:49;15.90;99.90
58513;DHT22;44302;47.914;10.642;2022-07-06T01:21:15;15.80;99.90
58513;DHT22;44302;47.914;10.642;2022-07-06T01:23:42;15.70;99.90
58513;DHT22;44302;47.914;10.642;2022-07-06T01:26:14;15.70;99.90
58513;DHT22;44302;47.914;10.642;2022-07-06T01:28:40;15.60;99.90
58513;DHT22;44302;47.914;10.642;2022-07-06T01:31:12;15.60;99.90
58513;DHT22;44302;47.914;10.642;2022-07-06T01:33:38;15.50;99.90
58513;DHT22;44302;47.914;10.642;2022-07-06T01:36:04;15.50;99.90
58513;DHT22;44302;47.914;10.642;2022-07-06T01:38:30;15.50;99.90
58513;DHT22;44302;47.914;10.642;2022-07-06T01:40:55;15.30;99.90
58513;DHT22;44302;47.914;10.642;2022-07-06T01:43:21;15.30;99.90
58513;DHT22;44302;47.914;10.642;2022-07-06T01:45:47;15.30;99.90
58513;DHT22;44302;47.914;10.642;2022-07-06T01:48:13;15.30;99.90
58513;DHT22;44302;47.914;10.642;2022-07-06T01:50:38;15.20;99.90
58513;DHT22;44302;47.914;10.642;2022-07-06T01:53:04;15.20;99.90
58513;DHT22;44302;47.914;10.642;2022-07-06T01:55:30;15.20;99.90
58513;DHT22;44302;47.914;10.642;2022-07-06T02:00:21;15.10;99.90
58513;DHT22;44302;47.914;10.642;2022-07-06T02:02:47;15.10;99.90
58513;DHT22;44302;47.914;10.642;2022-07-06T02:05:13;15.00;99.90
58513;DHT22;44302;47.914;10.642;2022-07-06T02:10:05;15.00;99.90
58513;DHT22;44302;47.914;10.642;2022-07-06T02:12:30;14.90;99.90
58513;DHT22;44302;47.914;10.642;2022-07-06T02:14:56;14.90;99.90
58513;DHT22;44302;47.914;10.642;2022-07-06T02:17:22;14.90;99.90
58513;DHT22;44302;47.914;10.642;2022-07-06T02:19:47;14.80;99.90
58513;DHT22;44302;47.914;10.642;2022-07-06T02:22:13;14.80;99.90
58513;DHT22;44302;47.914;10.642;2022-07-06T02:27:05;14.80;99.90
58513;DHT22;44302;47.914;10.642;2022-07-06T02:31:56;14.80;99.90
58513;DHT22;44302;47.914;10.642;2022-07-06T02:36:48;14.80;99.90
58513;DHT22;44302;47.914;10.642;2022-07-06T02:41:40;14.70;99.90
58513;DHT22;44302;47.914;10.642;2022-07-06T02:46:32;14.80;99.90
58513;DHT22;44302;47.914;10.642;2022-07-06T02:58:41;14.60;99.90
58513;DHT22;44302;47.914;10.642;2022-07-06T03:03:33;14.60;99.90
58513;DHT22;44302;47.914;10.642;2022-07-06T03:08:25;14.50;99.90
58513;DHT22;44302;47.914;10.642;2022-07-06T03:10:51;14.50;99.90
58513;DHT22;44302;47.914;10.642;2022-07-06T03:13:16;14.50;99.90
58513;DHT22;44302;47.914;10.642;2022-07-06T03:15:42;14.40;99.90
58513;DHT22;44302;47.914;10.642;2022-07-06T03:18:08;14.40;99.90
58513;DHT22;44302;47.914;10.642;2022-07-06T03:20:33;14.40;99.90
58513;DHT22;44302;47.914;10.642;2022-07-06T03:22:59;14.40;99.90
58513;DHT22;44302;47.914;10.642;2022-07-06T03:27:51;14.30;99.90
58513;DHT22;44302;47.914;10.642;2022-07-06T03:32:43;14.50;99.90
58513;DHT22;44302;47.914;10.642;2022-07-06T03:35:09;14.20;99.90
58513;DHT22;44302;47.914;10.642;2022-07-06T03:40:00;14.00;99.90
58513;DHT22;44302;47.914;10.642;2022-07-06T03:47:18;14.20;99.90
58513;DHT22;44302;47.914;10.642;2022-07-06T03:49:44;14.10;99.90
58513;DHT22;44302;47.914;10.642;2022-07-06T03:54:35;14.20;99.90
58513;DHT22;44302;47.914;10.642;2022-07-06T03:59:27;14.20;99.90
58513;DHT22;44302;47.914;10.642;2022-07-06T04:01:53;14.20;99.90
58513;DHT22;44302;47.914;10.642;2022-07-06T04:04:18;14.20;99.90
58513;DHT22;44302;47.914;10.642;2022-07-06T04:09:10;14.30;99.90
58513;DHT22;44302;47.914;10.642;2022-07-06T04:16:28;14.20;99.90
58513;DHT22;44302;47.914;10.642;2022-07-06T04:23:46;14.40;99.90
58513;DHT22;44302;47.914;10.642;2022-07-06T04:26:12;14.50;99.90
58513;DHT22;44302;47.914;10.642;2022-07-06T04:31:03;14.70;99.90
58513;DHT22;44302;47.914;10.642;2022-07-06T04:35:55;14.70;99.90
58513;DHT22;44302;47.914;10.642;2022-07-06T04:40:47;14.70;99.90
58513;DHT22;44302;47.914;10.642;2022-07-06T04:43:13;14.70;99.90
58513;DHT22;44302;47.914;10.642;2022-07-06T04:45:39;14.80;99.90
58513;DHT22;44302;47.914;10.642;2022-07-06T04:48:05;14.80;99.90
58513;DHT22;44302;47.914;10.642;2022-07-06T04:50:33;14.90;99.90
58513;DHT22;44302;47.914;10.642;2022-07-06T04:55:25;15.00;99.90
58513;DHT22;44302;47.914;10.642;2022-07-06T04:57:51;15.00;99.90
58513;DHT22;44302;47.914;10.642;2022-07-06T05:02:43;15.20;99.90
58513;DHT22;44302;47.914;10.642;2022-07-06T05:05:09;15.30;99.90
58513;DHT22;44302;47.914;10.642;2022-07-06T05:10:08;15.30;99.90
58513;DHT22;44302;47.914;10.642;2022-07-06T05:12:35;15.40;99.90
58513;DHT22;44302;47.914;10.642;2022-07-06T05:15:06;15.40;99.90
58513;DHT22;44302;47.914;10.642;2022-07-06T05:17:32;15.50;99.90
58513;DHT22;44302;47.914;10.642;2022-07-06T05:19:58;15.60;99.90
58513;DHT22;44302;47.914;10.642;2022-07-06T05:24:50;15.70;99.90
58513;DHT22;44302;47.914;10.642;2022-07-06T05:27:16;15.70;99.90
58513;DHT22;44302;47.914;10.642;2022-07-06T05:29:42;15.80;99.90
58513;DHT22;44302;47.914;10.642;2022-07-06T05:34:34;15.90;99.90
58513;DHT22;44302;47.914;10.642;2022-07-06T05:37:02;16.10;99.90
58513;DHT22;44302;47.914;10.642;2022-07-06T05:39:27;16.10;99.90
58513;DHT22;44302;47.914;10.642;2022-07-06T05:46:46;16.10;99.90
58513;DHT22;44302;47.914;10.642;2022-07-06T05:49:12;16.20;99.90
58513;DHT22;44302;47.914;10.642;2022-07-06T05:51:56;16.30;99.90
58513;DHT22;44302;47.914;10.642;2022-07-06T05:56:48;16.30;99.90
58513;DHT22;44302;47.914;10.642;2022-07-06T06:01:40;16.40;99.90
58513;DHT22;44302;47.914;10.642;2022-07-06T06:04:05;16.40;99.90
58513;DHT22;44302;47.914;10.642;2022-07-06T06:06:31;16.50;99.90
58513;DHT22;44302;47.914;10.642;2022-07-06T06:11:23;16.60;99.90
58513;DHT22;44302;47.914;10.642;2022-07-06T06:16:15;16.60;99.90
58513;DHT22;44302;47.914;10.642;2022-07-06T06:21:07;16.70;99.90
58513;DHT22;44302;47.914;10.642;2022-07-06T06:23:33;16.70;99.90
58513;DHT22;44302;47.914;10.642;2022-07-06T06:28:24;16.80;99.90
58513;DHT22;44302;47.914;10.642;2022-07-06T06:33:18;17.00;99.90
58513;DHT22;44302;47.914;10.642;2022-07-06T06:35:49;17.00;99.90
58513;DHT22;44302;47.914;10.642;2022-07-06T06:38:16;17.00;99.90
58513;DHT22;44302;47.914;10.642;2022-07-06T06:40:42;17.00;99.90
58513;DHT22;44302;47.914;10.642;2022-07-06T06:45:35;17.20;99.90
58513;DHT22;44302;47.914;10.642;2022-07-06T06:48:01;17.30;99.90
58513;DHT22;44302;47.914;10.642;2022-07-06T06:50:27;17.40;99.90
58513;DHT22;44302;47.914;10.642;2022-07-06T06:52:53;17.40;99.90
58513;DHT22;44302;47.914;10.642;2022-07-06T06:57:45;17.40;99.90
58513;DHT22;44302;47.914;10.642;2022-07-06T07:00:11;17.50;99.90
58513;DHT22;44302;47.914;10.642;2022-07-06T07:02:37;17.50;99.90
58513;DHT22;44302;47.914;10.642;2022-07-06T07:05:05;17.60;99.90
58513;DHT22;44302;47.914;10.642;2022-07-06T07:07:31;17.60;99.90
58513;DHT22;44302;47.914;10.642;2022-07-06T07:09:57;17.70;99.90
58513;DHT22;44302;47.914;10.642;2022-07-06T07:14:48;17.90;99.90
58513;DHT22;44302;47.914;10.642;2022-07-06T07:17:14;18.00;99.90
58513;DHT22;44302;47.914;10.642;2022-07-06T07:22:06;18.20;99.90
58513;DHT22;44302;47.914;10.642;2022-07-06T07:24:32;18.20;99.90
58513;DHT22;44302;47.914;10.642;2022-07-06T07:26:58;18.20;99.90
58513;DHT22;44302;47.914;10.642;2022-07-06T07:29:23;18.30;99.90
58513;DHT22;44302;47.914;10.642;2022-07-06T07:31:49;18.30;99.90
58513;DHT22;44302;47.914;10.642;2022-07-06T07:36:41;18.40;99.90
58513;DHT22;44302;47.914;10.642;2022-07-06T07:39:07;18.50;99.90
58513;DHT22;44302;47.914;10.642;2022-07-06T07:41:33;18.60;99.90
58513;DHT22;44302;47.914;10.642;2022-07-06T07:43:58;18.60;99.90
58513;DHT22;44302;47.914;10.642;2022-07-06T07:46:24;18.70;99.90
58513;DHT22;44302;47.914;10.642;2022-07-06T07:48:50;18.80;99.90
58513;DHT22;44302;47.914;10.642;2022-07-06T07:51:15;18.90;99.90
58513;DHT22;44302;47.914;10.642;2022-07-06T07:53:41;18.90;99.90
58513;DHT22;44302;47.914;10.642;2022-07-06T07:56:07;19.00;99.90
58513;DHT22;44302;47.914;10.642;2022-07-06T07:58:33;19.10;99.90
58513;DHT22;44302;47.914;10.642;2022-07-06T08:00:59;19.20;99.90
58513;DHT22;44302;47.914;10.642;2022-07-06T08:03:25;19.30;99.90
58513;DHT22;44302;47.914;10.642;2022-07-06T08:05:51;19.40;99.90
58513;DHT22;44302;47.914;10.642;2022-07-06T08:10:43;19.50;99.90
58513;DHT22;44302;47.914;10.642;2022-07-06T08:13:10;19.60;99.90
58513;DHT22;44302;47.914;10.642;2022-07-06T08:15:36;19.60;99.90
58513;DHT22;44302;47.914;10.642;2022-07-06T08:18:02;19.70;99.90
58513;DHT22;44302;47.914;10.642;2022-07-06T08:20:28;19.80;99.90
58513;DHT22;44302;47.914;10.642;2022-07-06T08:22:55;19.90;99.90
58513;DHT22;44302;47.914;10.642;2022-07-06T08:25:21;20.00;99.90
58513;DHT22;44302;47.914;10.642;2022-07-06T08:27:46;20.10;99.90
58513;DHT22;44302;47.914;10.642;2022-07-06T08:30:12;20.10;99.90
58513;DHT22;44302;47.914;10.642;2022-07-06T08:32:41;20.30;99.90
58513;DHT22;44302;47.914;10.642;2022-07-06T08:35:08;20.40;99.90
58513;DHT22;44302;47.914;10.642;2022-07-06T08:37:34;20.60;99.90
58513;DHT22;44302;47.914;10.642;2022-07-06T08:40:00;20.70;99.90
58513;DHT22;44302;47.914;10.642;2022-07-06T08:42:30;20.90;99.90
58513;DHT22;44302;47.914;10.642;2022-07-06T08:44:59;21.10;99.90
58513;DHT22;44302;47.914;10.642;2022-07-06T08:47:27;21.20;99.90
58513;DHT22;44302;47.914;10.642;2022-07-06T08:49:53;21.40;99.90
58513;DHT22;44302;47.914;10.642;2022-07-06T08:52:19;21.60;99.90
58513;DHT22;44302;47.914;10.642;2022-07-06T08:54:46;21.70;99.90
58513;DHT22;44302;47.914;10.642;2022-07-06T08:57:12;22.00;99.90
58513;DHT22;44302;47.914;10.642;2022-07-06T08:59:39;22.20;99.90
58513;DHT22;44302;47.914;10.642;2022-07-06T09:02:05;22.10;99.90
58513;DHT22;44302;47.914;10.642;2022-07-06T09:04:33;22.20;99.90
58513;DHT22;44302;47.914;10.642;2022-07-06T09:07:00;22.30;99.90
58513;DHT22;44302;47.914;10.642;2022-07-06T09:09:29;22.40;99.90
58513;DHT22;44302;47.914;10.642;2022-07-06T09:11:56;22.60;99.90
58513;DHT22;44302;47.914;10.642;2022-07-06T09:14:22;22.70;99.90
58513;DHT22;44302;47.914;10.642;2022-07-06T09:16:56;22.80;99.90
58513;DHT22;44302;47.914;10.642;2022-07-06T09:19:27;22.90;99.90
58513;DHT22;44302;47.914;10.642;2022-07-06T09:21:53;23.10;99.90
58513;DHT22;44302;47.914;10.642;2022-07-06T09:24:19;23.30;99.90
58513;DHT22;44302;47.914;10.642;2022-07-06T09:26:47;23.40;99.90
58513;DHT22;44302;47.914;10.642;2022-07-06T09:29:13;23.30;99.90
58513;DHT22;44302;47.914;10.642;2022-07-06T09:31:39;23.30;99.90
58513;DHT22;44302;47.914;10.642;2022-07-06T09:34:07;23.40;99.90
58513;DHT22;44302;47.914;10.642;2022-07-06T09:36:46;23.40;99.90
58513;DHT22;44302;47.914;10.642;2022-07-06T09:39:26;23.60;99.90
58513;DHT22;44302;47.914;10.642;2022-07-06T09:41:54;23.60;99.90
58513;DHT22;44302;47.914;10.642;2022-07-06T09:44:26;23.70;99.90
58513;DHT22;44302;47.914;10.642;2022-07-06T09:46:55;23.80;99.90
58513;DHT22;44302;47.914;10.642;2022-07-06T09:49:21;23.80;99.90
58513;DHT22;44302;47.914;10.642;2022-07-06T09:51:48;23.90;99.90
58513;DHT22;44302;47.914;10.642;2022-07-06T09:54:15;23.90;99.90
58513;DHT22;44302;47.914;10.642;2022-07-06T09:56:43;24.00;99.90
58513;DHT22;44302;47.914;10.642;2022-07-06T09:59:14;24.20;99.90
58513;DHT22;44302;47.914;10.642;2022-07-06T10:01:41;24.40;99.90
58513;DHT22;44302;47.914;10.642;2022-07-06T10:04:08;24.50;99.90
58513;DHT22;44302;47.914;10.642;2022-07-06T10:06:34;24.60;99.90
58513;DHT22;44302;47.914;10.642;2022-07-06T10:09:01;24.70;99.90
58513;DHT22;44302;47.914;10.642;2022-07-06T10:11:28;24.70;99.90
58513;DHT22;44302;47.914;10.642;2022-07-06T10:13:56;24.80;99.90
58513;DHT22;44302;47.914;10.642;2022-07-06T10:16:23;24.90;99.90
58513;DHT22;44302;47.914;10.642;2022-07-06T10:18:51;24.50;99.90
58513;DHT22;44302;47.914;10.642;2022-07-06T10:21:19;24.40;99.90
58513;DHT22;44302;47.914;10.642;2022-07-06T10:23:46;24.50;99.90
58513;DHT22;44302;47.914;10.642;2022-07-06T10:26:12;24.60;99.90
58513;DHT22;44302;47.914;10.642;2022-07-06T10:28:38;24.70;99.90
58513;DHT22;44302;47.914;10.642;2022-07-06T10:31:05;25.00;99.90
58513;DHT22;44302;47.914;10.642;2022-07-06T10:33:32;25.20;99.90
58513;DHT22;44302;47.914;10.642;2022-07-06T10:35:58;25.30;99.90
58513;DHT22;44302;47.914;10.642;2022-07-06T10:38:34;25.30;99.90
58513;DHT22;44302;47.914;10.642;2022-07-06T10:41:05;25.50;99.90
58513;DHT22;44302;47.914;10.642;2022-07-06T10:43:45;25.60;99.90
58513;DHT22;44302;47.914;10.642;2022-07-06T10:46:13;25.80;99.90
58513;DHT22;44302;47.914;10.642;2022-07-06T10:48:43;25.70;99.90
58513;DHT22;44302;47.914;10.642;2022-07-06T10:51:28;25.90;99.90
58513;DHT22;44302;47.914;10.642;2022-07-06T10:53:59;25.90;99.90
58513;DHT22;44302;47.914;10.642;2022-07-06T10:56:37;25.90;99.90
58513;DHT22;44302;47.914;10.642;2022-07-06T10:59:17;26.00;99.90
58513;DHT22;44302;47.914;10.642;2022-07-06T11:02:15;26.00;99.90
58513;DHT22;44302;47.914;10.642;2022-07-06T11:04:42;26.00;99.90
58513;DHT22;44302;47.914;10.642;2022-07-06T11:07:19;26.00;99.90
58513;DHT22;44302;47.914;10.642;2022-07-06T11:09:59;26.20;99.90
58513;DHT22;44302;47.914;10.642;2022-07-06T11:12:25;26.40;99.90
58513;DHT22;44302;47.914;10.642;2022-07-06T11:14:52;26.50;99.90
58513;DHT22;44302;47.914;10.642;2022-07-06T11:17:19;26.60;99.90
58513;DHT22;44302;47.914;10.642;2022-07-06T11:19:49;26.50;96.10
58513;DHT22;44302;47.914;10.642;2022-07-06T11:22:17;26.60;96.10
58513;DHT22;44302;47.914;10.642;2022-07-06T11:24:44;26.40;95.40
58513;DHT22;44302;47.914;10.642;2022-07-06T11:27:10;26.50;95.50
58513;DHT22;44302;47.914;10.642;2022-07-06T11:29:36;26.40;94.20
58513;DHT22;44302;47.914;10.642;2022-07-06T11:32:05;26.60;99.70
58513;DHT22;44302;47.914;10.642;2022-07-06T11:34:42;26.90;99.90
58513;DHT22;44302;47.914;10.642;2022-07-06T11:37:11;27.00;96.10
58513;DHT22;44302;47.914;10.642;2022-07-06T11:39:39;27.10;97.00
58513;DHT22;44302;47.914;10.642;2022-07-06T11:42:06;27.10;96.20
58513;DHT22;44302;47.914;10.642;2022-07-06T11:44:36;27.30;99.90
58513;DHT22;44302;47.914;10.642;2022-07-06T11:47:03;27.30;97.60
58513;DHT22;44302;47.914;10.642;2022-07-06T11:49:30;26.80;94.50
58513;DHT22;44302;47.914;10.642;2022-07-06T11:51:57;26.20;94.80
58513;DHT22;44302;47.914;10.642;2022-07-06T11:54:24;25.70;95.50
58513;DHT22;44302;47.914;10.642;2022-07-06T11:56:55;25.90;96.70
58513;DHT22;44302;47.914;10.642;2022-07-06T11:59:34;26.20;99.20
58513;DHT22;44302;47.914;10.642;2022-07-06T12:02:11;26.60;98.00
58513;DHT22;44302;47.914;10.642;2022-07-06T12:04:39;27.00;97.90
58513;DHT22;44302;47.914;10.642;2022-07-06T12:07:07;27.20;96.80
58513;DHT22;44302;47.914;10.642;2022-07-06T12:09:35;27.20;94.10
58513;DHT22;44302;47.914;10.642;2022-07-06T12:12:01;27.30;94.50
58513;DHT22;44302;47.914;10.642;2022-07-06T12:14:29;27.30;93.00
58513;DHT22;44302;47.914;10.642;2022-07-06T12:16:55;27.50;92.00
58513;DHT22;44302;47.914;10.642;2022-07-06T12:19:23;27.40;92.10
58513;DHT22;44302;47.914;10.642;2022-07-06T12:21:51;27.50;95.30
58513;DHT22;44302;47.914;10.642;2022-07-06T12:24:20;27.60;90.80
58513;DHT22;44302;47.914;10.642;2022-07-06T12:26:46;27.70;91.80
58513;DHT22;44302;47.914;10.642;2022-07-06T12:29:13;27.60;92.20
58513;DHT22;44302;47.914;10.642;2022-07-06T12:34:05;27.10;92.40
58513;DHT22;44302;47.914;10.642;2022-07-06T12:36:45;27.40;97.10
58513;DHT22;44302;47.914;10.642;2022-07-06T12:39:13;27.60;90.50
58513;DHT22;44302;47.914;10.642;2022-07-06T12:41:44;27.70;94.50
58513;DHT22;44302;47.914;10.642;2022-07-06T12:44:11;27.60;84.70
58513;DHT22;44302;47.914;10.642;2022-07-06T12:46:39;27.50;90.30
58513;DHT22;44302;47.914;10.642;2022-07-06T12:51:53;27.60;85.80
58513;DHT22;44302;47.914;10.642;2022-07-06T12:54:19;27.70;88.50
58513;DHT22;44302;47.914;10.642;2022-07-06T12:57:08;27.80;89.30
58513;DHT22;44302;47.914;10.642;2022-07-06T12:59:37;27.50;91.10
58513;DHT22;44302;47.914;10.642;2022-07-06T13:02:08;27.50;90.70
58513;DHT22;44302;47.914;10.642;2022-07-06T13:04:35;27.70;92.90
58513;DHT22;44302;47.914;10.642;2022-07-06T13:07:02;28.10;92.30
58513;DHT22;44302;47.914;10.642;2022-07-06T13:09:29;28.10;90.30
58513;DHT22;44302;47.914;10.642;2022-07-06T13:11:54;28.20;94.60
58513;DHT22;44302;47.914;10.642;2022-07-06T13:14:20;28.30;89.30
58513;DHT22;44302;47.914;10.642;2022-07-06T13:16:47;28.10;86.70
58513;DHT22;44302;47.914;10.642;2022-07-06T13:19:14;27.50;92.20
58513;DHT22;44302;47.914;10.642;2022-07-06T13:21:40;27.60;86.50
58513;DHT22;44302;47.914;10.642;2022-07-06T13:24:06;27.60;90.40
58513;DHT22;44302;47.914;10.642;2022-07-06T13:26:32;27.40;90.40
58513;DHT22;44302;47.914;10.642;2022-07-06T13:29:03;27.40;91.70
58513;DHT22;44302;47.914;10.642;2022-07-06T13:31:29;27.70;90.70
58513;DHT22;44302;47.914;10.642;2022-07-06T13:33:56;27.90;91.20
58513;DHT22;44302;47.914;10.642;2022-07-06T13:36:23;27.60;90.10
58513;DHT22;44302;47.914;10.642;2022-07-06T13:38:49;27.10;90.40
58513;DHT22;44302;47.914;10.642;2022-07-06T13:41:15;27.40;94.10
58513;DHT22;44302;47.914;10.642;2022-07-06T13:43:41;27.50;86.50
58513;DHT22;44302;47.914;10.642;2022-07-06T13:46:07;27.70;90.00
58513;DHT22;44302;47.914;10.642;2022-07-06T13:48:34;27.90;85.10
58513;DHT22;44302;47.914;10.642;2022-07-06T13:51:00;27.90;88.10
58513;DHT22;44302;47.914;10.642;2022-07-06T13:53:26;28.10;91.10
58513;DHT22;44302;47.914;10.642;2022-07-06T13:55:52;28.30;87.50
58513;DHT22;44302;47.914;10.642;2022-07-06T13:58:18;28.40;81.20
58513;DHT22;44302;47.914;10.642;2022-07-06T14:00:44;28.40;82.30
58513;DHT22;44302;47.914;10.642;2022-07-06T14:03:10;28.30;76.90
58513;DHT22;44302;47.914;10.642;2022-07-06T14:05:36;28.00;83.60
58513;DHT22;44302;47.914;10.642;2022-07-06T14:08:01;28.10;81.00
58513;DHT22;44302;47.914;10.642;2022-07-06T14:10:28;28.10;86.50
58513;DHT22;44302;47.914;10.642;2022-07-06T14:12:53;28.20;82.10
58513;DHT22;44302;47.914;10.642;2022-07-06T14:15:19;28.30;80.80
58513;DHT22;44302;47.914;10.642;2022-07-06T14:17:45;27.70;79.10
58513;DHT22;44302;47.914;10.642;2022-07-06T14:20:13;27.50;86.60
58513;DHT22;44302;47.914;10.642;2022-07-06T14:22:39;27.60;90.10
58513;DHT22;44302;47.914;10.642;2022-07-06T14:25:05;27.80;84.80
58513;DHT22;44302;47.914;10.642;2022-07-06T14:27:32;27.90;86.00
58513;DHT22;44302;47.914;10.642;2022-07-06T14:29:58;27.90;84.70
58513;DHT22;44302;47.914;10.642;2022-07-06T14:32:24;27.60;84.70
58513;DHT22;44302;47.914;10.642;2022-07-06T14:34:49;26.80;84.40
58513;DHT22;44302;47.914;10.642;2022-07-06T14:37:15;26.50;86.90
58513;DHT22;44302;47.914;10.642;2022-07-06T14:39:41;26.60;89.40
58513;DHT22;44302;47.914;10.642;2022-07-06T14:42:07;26.80;88.50
58513;DHT22;44302;47.914;10.642;2022-07-06T14:44:33;27.10;87.80
58513;DHT22;44302;47.914;10.642;2022-07-06T14:46:58;27.30;83.80
58513;DHT22;44302;47.914;10.642;2022-07-06T14:49:24;27.50;87.30
58513;DHT22;44302;47.914;10.642;2022-07-06T14:51:50;27.40;86.00
58513;DHT22;44302;47.914;10.642;2022-07-06T14:54:15;27.40;80.60
58513;DHT22;44302;47.914;10.642;2022-07-06T14:56:41;27.40;83.00
58513;DHT22;44302;47.914;10.642;2022-07-06T14:59:08;27.30;82.70
58513;DHT22;44302;47.914;10.642;2022-07-06T15:01:34;27.20;83.80
58513;DHT22;44302;47.914;10.642;2022-07-06T15:03:59;27.30;81.60
58513;DHT22;44302;47.914;10.642;2022-07-06T15:06:25;27.50;89.20
58513;DHT22;44302;47.914;10.642;2022-07-06T15:08:51;27.50;84.10
58513;DHT22;44302;47.914;10.642;2022-07-06T15:11:17;27.50;86.30
58513;DHT22;44302;47.914;10.642;2022-07-06T15:13:42;27.50;90.30
58513;DHT22;44302;47.914;10.642;2022-07-06T15:16:08;27.30;87.40
58513;DHT22;44302;47.914;10.642;2022-07-06T15:18:34;27.20;87.50
58513;DHT22;44302;47.914;10.642;2022-07-06T15:20:59;26.60;83.90
58513;DHT22;44302;47.914;10.642;2022-07-06T15:23:25;26.00;83.40
58513;DHT22;44302;47.914;10.642;2022-07-06T15:25:52;25.80;88.60
58513;DHT22;44302;47.914;10.642;2022-07-06T15:28:19;26.00;87.00
58513;DHT22;44302;47.914;10.642;2022-07-06T15:30:45;26.10;88.00
58513;DHT22;44302;47.914;10.642;2022-07-06T15:33:11;26.30;87.60
58513;DHT22;44302;47.914;10.642;2022-07-06T15:35:37;26.50;86.40
58513;DHT22;44302;47.914;10.642;2022-07-06T15:38:03;26.50;87.00
58513;DHT22;44302;47.914;10.642;2022-07-06T15:40:28;26.10;83.20
58513;DHT22;44302;47.914;10.642;2022-07-06T15:42:59;25.60;85.50
58513;DHT22;44302;47.914;10.642;2022-07-06T15:45:25;25.10;82.00
58513;DHT22;44302;47.914;10.642;2022-07-06T15:47:51;25.00;83.60
58513;DHT22;44302;47.914;10.642;2022-07-06T15:50:17;25.40;91.50
58513;DHT22;44302;47.914;10.642;2022-07-06T15:52:45;25.60;90.30
58513;DHT22;44302;47.914;10.642;2022-07-06T15:55:11;25.80;81.10
58513;DHT22;44302;47.914;10.642;2022-07-06T15:57:37;25.90;81.20
58513;DHT22;44302;47.914;10.642;2022-07-06T16:00:03;25.90;84.40
58513;DHT22;44302;47.914;10.642;2022-07-06T16:02:29;26.00;85.40
58513;DHT22;44302;47.914;10.642;2022-07-06T16:04:55;26.00;86.20
58513;DHT22;44302;47.914;10.642;2022-07-06T16:07:20;25.80;88.00
58513;DHT22;44302;47.914;10.642;2022-07-06T16:09:46;25.70;84.60
58513;DHT22;44302;47.914;10.642;2022-07-06T16:12:12;25.50;89.10
58513;DHT22;44302;47.914;10.642;2022-07-06T16:14:37;25.50;87.10
58513;DHT22;44302;47.914;10.642;2022-07-06T16:17:03;25.30;82.10
58513;DHT22;44302;47.914;10.642;2022-07-06T16:19:29;25.40;85.40
58513;DHT22;44302;47.914;10.642;2022-07-06T16:21:55;25.30;89.50
58513;DHT22;44302;47.914;10.642;2022-07-06T16:24:21;25.30;87.90
58513;DHT22;44302;47.914;10.642;2022-07-06T16:26:46;25.20;86.50
58513;DHT22;44302;47.914;10.642;2022-07-06T16:29:12;24.90;87.50
58513;DHT22;44302;47.914;10.642;2022-07-06T16:31:38;24.60;85.40
58513;DHT22;44302;47.914;10.642;2022-07-06T16:34:03;24.40;90.00
58513;DHT22;44302;47.914;10.642;2022-07-06T16:36:29;24.20;90.50
58513;DHT22;44302;47.914;10.642;2022-07-06T16:38:55;24.00;88.40
58513;DHT22;44302;47.914;10.642;2022-07-06T16:41:20;23.80;89.50
58513;DHT22;44302;47.914;10.642;2022-07-06T16:43:46;23.60;89.10
58513;DHT22;44302;47.914;10.642;2022-07-06T16:46:15;23.40;90.00
58513;DHT22;44302;47.914;10.642;2022-07-06T16:48:40;23.20;90.50
58513;DHT22;44302;47.914;10.642;2022-07-06T16:51:06;23.10;89.70
58513;DHT22;44302;47.914;10.642;2022-07-06T16:53:33;23.00;91.60
58513;DHT22;44302;47.914;10.642;2022-07-06T16:55:58;22.90;91.60
58513;DHT22;44302;47.914;10.642;2022-07-06T16:58:24;22.80;90.60
58513;DHT22;44302;47.914;10.642;2022-07-06T17:00:50;22.80;91.50
58513;DHT22;44302;47.914;10.642;2022-07-06T17:03:16;22.70;92.00
58513;DHT22;44302;47.914;10.642;2022-07-06T17:05:42;22.60;92.00
58513;DHT22;44302;47.914;10.642;2022-07-06T17:08:08;22.50;91.40
58513;DHT22;44302;47.914;10.642;2022-07-06T17:10:33;22.50;92.80
58513;DHT22;44302;47.914;10.642;2022-07-06T17:12:59;22.40;92.00
58513;DHT22;44302;47.914;10.642;2022-07-06T17:15:25;22.30;93.00